Terminal Aerodrome Forecast
Issued by NWS North Platte, NE

Home | Current Version | Previous Version | Text Only | Print | Product List | Glossary On
Versions: 1 2 3 4 5 6 7 8 9 10 11 12 13 14 15
000
FTUS43 KLBF 231100
TAFLBF
TAF
KLBF 231121Z 2312/2412 15017KT P6SM BKN200
     FM231600 19015KT P6SM BKN200
     FM231800 22012KT P6SM BKN200
     FM232000 28015G25KT P6SM VCTS BKN070CB
      TEMPO 2322/2402 32022G32KT
     FM240200 32011G24KT P6SM BKN070
     FM240600 34011KT P6SM SKC=

USA.gov is the U.S. government's official web portal to all federal, state and local government web resources and services.